Conquest, New York
Current Conditions -  °F | °C
As of 10:54 PM on Thursday 18 Dec 2014 (Local Time) from KFZY Reporting Station
Overcast Overcast  
Wind Chill: 21°   Ceiling: 1700
Heat Index: 31°   Visibility: 9mi
Dew Point: 25°   Wind: 14mph
Humidity: 79%   Direction: 290°WNW
Pressure: 30.01"   Gusts: NA
Location:  43.0228°N, 76.6522°W
Report Text: KFZY 190354Z AUTO 29012KT 9SM BKN017 OVC022 M01/M04 A3001 RMK AO2 SLP169 T10061039
Loading
Personal Weather Stations






























Interactive Weather Map New forecast layout! Learn more

10-Day Weather Forecast

Advertisements
Track Severe Weather on mobile